Time;durP1;ratioP1;P1;durP2;ratioP2;P2;SDS_P1;SDS_P2;PMS_P1;PMS_P2;Temp;Humidity;BMP_temperature;BMP_pressure;BME280_temperature;BME280_humidity;BME280_pressure;Samples;Min_cycle;Max_cycle;Signal;HPM_P1;HPM_P2
2022/08/09 00:00:08;;;;;;;2.13;2.03;;;25.20;39.00;;;;;;5014058;28;20193;-45
2022/08/09 00:02:34;;;;;;;3.30;2.37;;;25.10;39.10;;;;;;5019249;28;20734;-46
2022/08/09 00:05:00;;;;;;;4.03;2.03;;;25.10;39.20;;;;;;5027294;28;20436;-44
2022/08/09 00:07:25;;;;;;;2.30;2.10;;;25.00;39.20;;;;;;5020115;28;20197;-44
2022/08/09 00:09:51;;;;;;;2.73;2.17;;;25.00;39.30;;;;;;5013892;28;20791;-44
2022/08/09 00:12:16;;;;;;;4.63;2.00;;;25.00;39.30;;;;;;5014931;28;20204;-46
2022/08/09 00:14:42;;;;;;;2.47;2.00;;;25.00;39.30;;;;;;5014313;28;20627;-44
2022/08/09 00:17:08;;;;;;;4.10;2.50;;;24.90;39.20;;;;;;5014339;28;20190;-44
2022/08/09 00:19:33;;;;;;;2.50;2.30;;;24.90;39.50;;;;;;5012226;28;20182;-45
2022/08/09 00:21:59;;;;;;;6.90;2.80;;;24.90;39.60;;;;;;5014228;28;20204;-44
2022/08/09 00:24:25;;;;;;;2.77;2.00;;;24.80;39.80;;;;;;5013905;28;20209;-44
2022/08/09 00:26:51;;;;;;;3.63;2.30;;;24.70;40.10;;;;;;5014079;28;20559;-45
2022/08/09 00:29:16;;;;;;;3.20;2.13;;;24.70;40.10;;;;;;5013664;28;20198;-47
2022/08/09 00:31:42;;;;;;;2.40;2.20;;;24.80;40.30;;;;;;5014224;28;20263;-45
2022/08/09 00:34:08;;;;;;;2.07;1.87;;;24.70;40.30;;;;;;5013712;28;20311;-44
2022/08/09 00:36:33;;;;;;;2.63;2.17;;;24.70;40.30;;;;;;5013947;28;20182;-45
2022/08/09 00:38:59;;;;;;;2.83;2.40;;;24.70;40.30;;;;;;5013331;28;20194;-44
2022/08/09 00:41:25;;;;;;;7.13;2.07;;;24.70;40.30;;;;;;5014073;28;20208;-47
2022/08/09 00:43:51;;;;;;;2.67;2.47;;;24.60;40.30;;;;;;5013411;28;20226;-44
2022/08/09 00:46:18;;;;;;;2.23;2.03;;;24.60;40.50;;;;;;5012453;28;20201;-45
2022/08/09 00:48:44;;;;;;;2.43;2.23;;;24.40;40.90;;;;;;5013139;28;20861;-45
2022/08/09 00:51:10;;;;;;;1.93;1.83;;;24.30;41.50;;;;;;5013972;28;20429;-45
2022/08/09 00:53:37;;;;;;;4.10;2.23;;;24.20;41.90;;;;;;5020800;28;21171;-46
2022/08/09 00:56:06;;;;;;;2.77;2.50;;;24.20;41.90;;;;;;5019460;28;20197;-44
2022/08/09 00:58:34;;;;;;;2.70;2.30;;;24.00;41.70;;;;;;5012969;28;20787;-44
2022/08/09 01:01:01;;;;;;;2.30;2.00;;;23.90;41.90;;;;;;5017893;28;20527;-47
2022/08/09 01:03:39;;;;;;;2.83;1.80;;;23.90;41.80;;;;;;5013323;28;20488;-45
2022/08/09 01:06:10;;;;;;;2.13;1.93;;;23.90;42.30;;;;;;5029211;28;20869;-45
2022/08/09 01:09:25;;;;;;;2.30;2.20;;;23.80;42.10;;;;;;5011404;28;20803;-44
2022/08/09 01:12:18;;;;;;;2.40;2.20;;;23.60;42.40;;;;;;5007169;28;20452;-45
2022/08/09 01:14:54;;;;;;;2.70;2.50;;;23.50;42.70;;;;;;5031351;28;20440;-44
2022/08/09 01:17:40;;;;;;;2.10;1.90;;;23.30;43.10;;;;;;5033307;28;20855;-44
2022/08/09 01:20:34;;;;;;;2.37;2.10;;;23.10;43.20;;;;;;5032361;28;20424;-44
2022/08/09 01:23:32;;;;;;;3.50;2.23;;;22.90;43.50;;;;;;5029970;28;20499;-45
2022/08/09 01:26:29;;;;;;;3.73;2.40;;;22.90;43.80;;;;;;5031488;28;20452;-48
2022/08/09 01:28:55;;;;;;;2.50;2.30;;;22.90;43.80;;;;;;5031911;28;20439;-47
2022/08/09 01:31:25;;;;;;;3.53;2.13;;;22.90;43.70;;;;;;5033126;28;20904;-48
2022/08/09 01:33:53;;;;;;;2.20;2.00;;;22.80;43.90;;;;;;5030912;28;20800;-46
2022/08/09 01:36:21;;;;;;;2.20;2.00;;;22.70;44.10;;;;;;5032847;28;20427;-48
2022/08/09 01:38:49;;;;;;;2.73;2.53;;;22.60;44.20;;;;;;5032056;28;20424;-49
2022/08/09 01:41:24;;;;;;;2.53;2.30;;;22.60;44.30;;;;;;5031485;28;20501;-46
2022/08/09 01:43:54;;;;;;;2.30;2.20;;;22.70;44.30;;;;;;5031926;28;20566;-46
2022/08/09 01:46:23;;;;;;;4.00;2.60;;;22.70;44.10;;;;;;5032619;28;20921;-48
2022/08/09 01:48:52;;;;;;;2.10;2.00;;;22.80;43.90;;;;;;5031745;28;20420;-45
2022/08/09 01:51:19;;;;;;;2.87;2.33;;;22.90;43.60;;;;;;5032443;28;20419;-47
2022/08/09 01:53:46;;;;;;;4.63;2.20;;;23.00;43.50;;;;;;5031859;28;20974;-45
2022/08/09 01:56:12;;;;;;;2.10;2.00;;;23.10;43.40;;;;;;5016900;28;20830;-48
2022/08/09 01:58:38;;;;;;;2.20;2.10;;;23.10;43.10;;;;;;5011624;28;20801;-49
2022/08/09 02:01:06;;;;;;;2.40;2.27;;;23.10;43.30;;;;;;5017104;28;20510;-45
2022/08/09 02:03:34;;;;;;;3.23;2.30;;;23.10;43.40;;;;;;5012749;28;20857;-47
2022/08/09 02:06:01;;;;;;;2.63;2.00;;;23.00;43.40;;;;;;5029784;28;20455;-48
2022/08/09 02:08:29;;;;;;;3.00;1.80;;;23.10;43.40;;;;;;5010080;28;20425;-45
2022/08/09 02:10:56;;;;;;;3.20;2.90;;;23.10;43.40;;;;;;5012521;28;20523;-45
2022/08/09 02:13:23;;;;;;;2.90;2.43;;;23.10;43.20;;;;;;5011765;28;20432;-48
2022/08/09 02:15:51;;;;;;;2.57;2.37;;;23.10;43.20;;;;;;5011957;28;20679;-46
2022/08/09 02:18:25;;;;;;;4.50;2.50;;;22.90;43.60;;;;;;5011538;28;20442;-45
2022/08/09 02:20:56;;;;;;;2.57;2.20;;;22.90;43.80;;;;;;5012265;28;20429;-48
2022/08/09 02:23:34;;;;;;;3.40;2.67;;;22.90;43.60;;;;;;5011557;28;20480;-48
2022/08/09 02:26:01;;;;;;;1.90;1.80;;;23.00;43.70;;;;;;5019143;28;20462;-48
2022/08/09 02:28:39;;;;;;;3.80;2.47;;;22.80;44.10;;;;;;5029772;28;20935;-48
2022/08/09 02:31:12;;;;;;;3.03;2.30;;;22.80;44.40;;;;;;5031858;28;20440;-47
2022/08/09 02:33:42;;;;;;;2.50;2.40;;;22.70;44.30;;;;;;5028373;28;21124;-48
2022/08/09 02:36:18;;;;;;;3.13;2.50;;;22.80;44.20;;;;;;5031620;28;20436;-48
2022/08/09 02:38:53;;;;;;;3.53;2.50;;;22.80;44.10;;;;;;5067374;28;20873;-48
2022/08/09 02:41:35;;;;;;;3.50;2.30;;;22.80;44.00;;;;;;5068087;28;21012;-46
2022/08/09 02:44:06;;;;;;;2.03;1.93;;;22.90;43.90;;;;;;5067432;28;20433;-45
2022/08/09 02:46:34;;;;;;;2.60;2.40;;;22.90;43.80;;;;;;5068118;28;20505;-49
2022/08/09 02:49:04;;;;;;;3.70;2.43;;;22.80;43.70;;;;;;5067271;28;20423;-50
2022/08/09 02:51:35;;;;;;;3.00;2.47;;;22.60;44.10;;;;;;5067951;28;20480;-47
2022/08/09 02:54:03;;;;;;;2.47;2.27;;;22.60;44.30;;;;;;5056014;28;20431;-48
2022/08/09 02:56:31;;;;;;;2.17;1.87;;;22.60;44.30;;;;;;5047639;28;20439;-47
2022/08/09 02:58:58;;;;;;;2.37;2.27;;;22.60;44.20;;;;;;5047198;28;20420;-49
2022/08/09 03:01:24;;;;;;;2.47;2.37;;;22.60;44.10;;;;;;5046138;28;20882;-46
2022/08/09 03:03:52;;;;;;;2.40;2.30;;;22.60;44.10;;;;;;5047367;28;20416;-49
2022/08/09 03:06:20;;;;;;;3.23;2.63;;;22.60;44.20;;;;;;5047655;28;20442;-46
2022/08/09 03:08:48;;;;;;;4.50;2.10;;;22.50;44.30;;;;;;5046935;28;20431;-45
2022/08/09 03:11:17;;;;;;;3.60;1.90;;;22.50;44.50;;;;;;5046417;28;20500;-48
2022/08/09 03:13:45;;;;;;;2.70;2.47;;;22.50;44.30;;;;;;5046982;28;20454;-49
2022/08/09 03:16:13;;;;;;;2.67;2.47;;;22.50;44.30;;;;;;5047938;28;20419;-46
2022/08/09 03:18:40;;;;;;;2.63;2.43;;;22.50;44.40;;;;;;5046600;28;20490;-48
2022/08/09 03:21:07;;;;;;;3.00;2.73;;;22.40;44.40;;;;;;5047593;28;20435;-45
2022/08/09 03:23:33;;;;;;;2.60;2.40;;;22.40;44.60;;;;;;5046618;28;20423;-46
2022/08/09 03:26:01;;;;;;;2.63;2.43;;;22.30;44.80;;;;;;5047266;28;20423;-48
2022/08/09 03:28:29;;;;;;;3.07;2.60;;;22.30;44.90;;;;;;5044676;28;20260;-45
2022/08/09 03:30:55;;;;;;;2.90;2.70;;;22.10;45.30;;;;;;5047378;28;20435;-45
2022/08/09 03:33:22;;;;;;;3.10;2.43;;;21.90;46.20;;;;;;5046702;28;20447;-48
2022/08/09 03:35:50;;;;;;;3.10;2.90;;;21.90;46.00;;;;;;5047279;28;20416;-49
2022/08/09 03:38:16;;;;;;;2.67;2.47;;;21.80;46.30;;;;;;5046575;28;20590;-44
2022/08/09 03:40:42;;;;;;;2.87;2.67;;;21.80;46.30;;;;;;5046593;28;20427;-45
2022/08/09 03:43:07;;;;;;;2.70;2.50;;;21.80;46.10;;;;;;5047046;28;20423;-44
2022/08/09 03:45:35;;;;;;;3.40;3.00;;;21.90;46.10;;;;;;5046500;28;20252;-46
2022/08/09 03:48:01;;;;;;;2.57;2.37;;;21.90;46.00;;;;;;5045979;28;20200;-48
2022/08/09 03:50:28;;;;;;;2.93;2.63;;;21.80;46.10;;;;;;5032967;28;20467;-44
2022/08/09 03:52:57;;;;;;;2.73;2.53;;;21.90;46.20;;;;;;5033427;28;20417;-44
2022/08/09 03:55:23;;;;;;;3.93;2.80;;;21.40;47.10;;;;;;5031823;28;20986;-48
2022/08/09 03:57:49;;;;;;;3.73;2.67;;;21.20;47.60;;;;;;5032998;28;20658;-44
2022/08/09 04:00:16;;;;;;;3.10;2.80;;;21.20;47.50;;;;;;5032809;28;20206;-45
2022/08/09 04:02:42;;;;;;;3.00;2.80;;;21.30;47.20;;;;;;5033362;28;20432;-49
2022/08/09 04:05:12;;;;;;;4.10;2.80;;;21.40;46.90;;;;;;5032863;28;20428;-44
2022/08/09 04:07:38;;;;;;;4.27;3.30;;;21.50;46.70;;;;;;5032957;28;20447;-44
2022/08/09 04:10:05;;;;;;;2.83;2.50;;;21.30;47.50;;;;;;5032486;28;20515;-46
2022/08/09 04:12:43;;;;;;;3.83;2.90;;;21.00;48.40;;;;;;5033219;28;20428;-44
2022/08/09 04:15:09;;;;;;;3.37;2.53;;;21.00;48.90;;;;;;5032746;28;20955;-45
2022/08/09 04:17:35;;;;;;;3.03;2.80;;;21.00;48.90;;;;;;5032836;28;20491;-47
2022/08/09 04:20:00;;;;;;;4.77;2.80;;;20.90;49.10;;;;;;5030457;28;20427;-45
2022/08/09 04:22:26;;;;;;;3.10;2.80;;;21.00;48.80;;;;;;5033181;28;20268;-45
2022/08/09 04:24:53;;;;;;;2.80;2.60;;;20.90;48.80;;;;;;5032678;28;20771;-45
2022/08/09 04:27:18;;;;;;;3.27;2.77;;;21.00;48.60;;;;;;5032787;28;20521;-48
2022/08/09 04:29:44;;;;;;;3.00;2.80;;;21.10;48.20;;;;;;5032249;28;20431;-46
2022/08/09 04:32:10;;;;;;;3.00;2.80;;;21.30;48.00;;;;;;5032861;28;20243;-44
2022/08/09 04:34:35;;;;;;;3.63;3.23;;;21.30;47.80;;;;;;5032422;28;20190;-44
2022/08/09 04:37:01;;;;;;;4.23;2.83;;;21.40;47.90;;;;;;5032715;28;20647;-48
2022/08/09 04:39:27;;;;;;;7.70;3.00;;;21.50;47.90;;;;;;5031798;28;20555;-45
2022/08/09 04:41:53;;;;;;;6.00;3.47;;;21.50;47.80;;;;;;5032622;28;20396;-46
2022/08/09 04:44:18;;;;;;;4.40;3.90;;;21.50;47.70;;;;;;5032150;28;20697;-44
2022/08/09 04:46:44;;;;;;;3.80;3.20;;;21.50;47.90;;;;;;5030922;28;20547;-46
2022/08/09 04:49:10;;;;;;;4.93;3.33;;;21.50;47.90;;;;;;5031565;28;20648;-46
2022/08/09 04:51:35;;;;;;;6.90;3.00;;;21.50;48.00;;;;;;5032560;28;20185;-44
2022/08/09 04:54:01;;;;;;;3.67;2.90;;;21.50;47.80;;;;;;5032002;28;20548;-44
2022/08/09 04:56:28;;;;;;;6.10;3.70;;;21.50;47.80;;;;;;5032278;28;20201;-45
2022/08/09 04:58:54;;;;;;;3.00;2.63;;;21.30;48.60;;;;;;5031626;28;20776;-46
2022/08/09 05:01:19;;;;;;;3.67;3.37;;;21.10;49.00;;;;;;5031070;28;20423;-44
2022/08/09 05:03:45;;;;;;;3.00;2.80;;;21.00;49.30;;;;;;5030489;28;20276;-44
2022/08/09 05:06:11;;;;;;;8.57;3.37;;;21.10;49.30;;;;;;5031941;28;20220;-44
2022/08/09 05:08:37;;;;;;;4.93;3.10;;;21.20;49.00;;;;;;5031322;28;20197;-44
2022/08/09 05:11:03;;;;;;;5.70;3.80;;;21.30;48.70;;;;;;5032165;28;20193;-45
2022/08/09 05:13:28;;;;;;;3.67;3.33;;;21.40;48.60;;;;;;5029697;28;20207;-44
2022/08/09 05:15:54;;;;;;;4.67;3.47;;;21.20;49.00;;;;;;5032297;28;20212;-44
2022/08/09 05:18:20;;;;;;;3.47;3.17;;;20.80;49.60;;;;;;5031463;28;20263;-45
2022/08/09 05:20:45;;;;;;;3.97;3.30;;;20.90;49.90;;;;;;5031793;28;20232;-44
2022/08/09 05:23:12;;;;;;;3.60;3.30;;;21.10;49.60;;;;;;5031854;28;20628;-44
2022/08/09 05:25:37;;;;;;;3.60;3.30;;;21.00;49.50;;;;;;5031306;28;20255;-44
2022/08/09 05:28:03;;;;;;;4.13;2.80;;;21.00;49.70;;;;;;5031519;28;20815;-45
2022/08/09 05:30:29;;;;;;;3.73;3.43;;;20.90;50.10;;;;;;5031158;28;20190;-45
2022/08/09 05:32:55;;;;;;;3.00;2.80;;;21.00;49.90;;;;;;5031763;28;20564;-46
2022/08/09 05:35:20;;;;;;;3.13;2.80;;;21.10;49.70;;;;;;5030906;28;20193;-45
2022/08/09 05:37:47;;;;;;;8.10;2.80;;;21.30;49.40;;;;;;5031331;28;20269;-45
2022/08/09 05:40:14;;;;;;;2.93;2.73;;;21.30;49.60;;;;;;5029420;28;20197;-47
2022/08/09 05:42:40;;;;;;;2.93;2.73;;;21.40;49.00;;;;;;5031685;28;20523;-44
2022/08/09 05:45:06;;;;;;;4.07;2.83;;;21.60;48.70;;;;;;5030830;28;20463;-44
2022/08/09 05:47:32;;;;;;;3.30;3.10;;;21.70;48.40;;;;;;5031116;28;20511;-46
2022/08/09 05:49:57;;;;;;;3.10;2.90;;;21.70;48.40;;;;;;5030935;28;20507;-45
2022/08/09 05:52:23;;;;;;;3.17;2.97;;;21.70;48.40;;;;;;5031236;28;20217;-44
2022/08/09 05:54:49;;;;;;;3.37;3.10;;;21.80;48.30;;;;;;5030721;28;20243;-44
2022/08/09 05:57:15;;;;;;;4.57;3.00;;;21.90;48.40;;;;;;5031429;28;20225;-46
2022/08/09 05:59:41;;;;;;;2.83;2.60;;;22.10;48.00;;;;;;5030317;28;20420;-44
2022/08/09 06:02:07;;;;;;;3.57;3.27;;;22.30;47.60;;;;;;5030916;28;20432;-44
2022/08/09 06:04:33;;;;;;;3.43;3.13;;;22.50;47.50;;;;;;5030565;28;20220;-46
2022/08/09 06:06:59;;;;;;;3.30;3.00;;;22.60;47.10;;;;;;5029615;28;20432;-46
2022/08/09 06:09:24;;;;;;;3.40;3.10;;;22.70;46.70;;;;;;5030146;28;20204;-45
2022/08/09 06:11:50;;;;;;;11.80;3.87;;;22.90;46.40;;;;;;5030899;28;20197;-44
2022/08/09 06:14:16;;;;;;;2.93;2.73;;;23.10;46.20;;;;;;5030698;28;20633;-46
2022/08/09 06:16:42;;;;;;;6.57;3.20;;;23.20;45.90;;;;;;5030921;28;20268;-44
2022/08/09 06:19:08;;;;;;;3.73;2.90;;;23.40;45.70;;;;;;5030139;28;20808;-44
2022/08/09 06:21:34;;;;;;;8.53;3.20;;;23.60;45.60;;;;;;5030962;28;20464;-45
2022/08/09 06:23:59;;;;;;;3.67;2.80;;;23.70;45.30;;;;;;5030265;28;20243;-45
2022/08/09 06:26:25;;;;;;;3.27;2.80;;;23.90;45.40;;;;;;5030936;28;20201;-46
2022/08/09 06:28:53;;;;;;;3.70;3.37;;;24.10;45.10;;;;;;5029239;28;20216;-46
2022/08/09 06:31:18;;;;;;;3.10;2.80;;;24.30;44.80;;;;;;5031046;28;20264;-46
2022/08/09 06:33:44;;;;;;;4.20;3.30;;;24.40;44.70;;;;;;5028612;28;20875;-46
2022/08/09 06:36:10;;;;;;;3.33;3.07;;;24.50;44.50;;;;;;5030716;28;20189;-48
2022/08/09 06:38:36;;;;;;;3.03;2.83;;;24.70;44.30;;;;;;5029633;28;20774;-48
2022/08/09 06:41:01;;;;;;;4.37;3.97;;;24.90;43.80;;;;;;5030769;28;20568;-48
2022/08/09 06:43:27;;;;;;;3.70;3.10;;;25.00;43.40;;;;;;5030136;28;20555;-48
2022/08/09 06:45:53;;;;;;;3.50;3.20;;;25.10;43.10;;;;;;5030670;28;20283;-46
2022/08/09 06:48:19;;;;;;;3.83;3.37;;;25.30;43.00;;;;;;5030064;28;20201;-45
2022/08/09 06:50:45;;;;;;;3.97;3.50;;;25.40;42.60;;;;;;5030618;28;20946;-46
2022/08/09 06:53:12;;;;;;;7.17;3.30;;;25.60;42.50;;;;;;5030524;28;20272;-46
2022/08/09 06:55:38;;;;;;;3.73;3.43;;;25.90;42.00;;;;;;5029844;28;20439;-48
2022/08/09 06:58:03;;;;;;;3.93;3.13;;;25.90;41.40;;;;;;5030065;28;20490;-47
2022/08/09 07:00:33;;;;;;;3.57;3.30;;;25.90;41.50;;;;;;5028299;28;20568;-45
2022/08/09 07:02:59;;;;;;;3.10;2.90;;;26.00;41.20;;;;;;5030449;28;20247;-47
2022/08/09 07:05:25;;;;;;;4.13;3.40;;;26.20;41.20;;;;;;5030037;28;20878;-48
2022/08/09 07:07:50;;;;;;;2.77;2.67;;;26.40;40.90;;;;;;5030235;28;20599;-48
2022/08/09 07:10:16;;;;;;;4.03;3.27;;;26.60;40.20;;;;;;5030241;28;20194;-45
2022/08/09 07:12:41;;;;;;;3.40;3.10;;;26.60;40.00;;;;;;5030392;28;20193;-48
2022/08/09 07:15:07;;;;;;;5.87;3.13;;;26.60;40.00;;;;;;5030011;28;20195;-49
2022/08/09 07:17:33;;;;;;;2.93;2.73;;;26.80;40.00;;;;;;5030041;28;20283;-48
2022/08/09 07:19:59;;;;;;;3.13;2.93;;;27.00;39.60;;;;;;5029852;28;20462;-47
2022/08/09 07:22:24;;;;;;;4.00;3.13;;;27.20;39.50;;;;;;5030389;28;20204;-47
2022/08/09 07:24:50;;;;;;;2.90;2.70;;;27.40;38.80;;;;;;5032231;28;20213;-46
2022/08/09 07:27:15;;;;;;;3.63;2.83;;;27.40;38.80;;;;;;5032559;28;20193;-48
2022/08/09 07:29:41;;;;;;;3.03;2.83;;;27.60;38.20;;;;;;5033328;28;20197;-48
2022/08/09 07:32:07;;;;;;;2.90;2.70;;;27.60;37.50;;;;;;5034200;28;20193;-48
2022/08/09 07:34:33;;;;;;;3.30;3.00;;;27.60;37.40;;;;;;5033370;28;20197;-47
2022/08/09 07:36:59;;;;;;;3.50;2.60;;;27.90;37.40;;;;;;5033837;28;20244;-46
2022/08/09 07:39:25;;;;;;;4.53;2.97;;;28.30;36.80;;;;;;5031998;28;20428;-46
2022/08/09 07:41:50;;;;;;;3.13;2.60;;;28.40;36.90;;;;;;5033756;28;20428;-49
2022/08/09 07:44:16;;;;;;;2.87;2.67;;;28.70;36.20;;;;;;5033546;28;20189;-49
2022/08/09 07:46:42;;;;;;;6.03;2.70;;;28.90;35.80;;;;;;5033867;28;20235;-49
2022/08/09 07:49:07;;;;;;;5.87;2.83;;;29.20;35.50;;;;;;5032800;28;20193;-44
2022/08/09 07:51:33;;;;;;;3.00;2.80;;;29.30;35.60;;;;;;5033686;28;20211;-49
2022/08/09 07:53:58;;;;;;;2.60;2.40;;;29.60;35.20;;;;;;5031325;28;20189;-47
2022/08/09 07:56:26;;;;;;;2.90;2.70;;;29.70;34.40;;;;;;5033709;28;20666;-48
2022/08/09 07:58:51;;;;;;;2.77;2.53;;;29.50;34.20;;;;;;5032619;28;20714;-45
2022/08/09 08:01:17;;;;;;;2.90;2.60;;;29.60;34.20;;;;;;5033338;28;20511;-45
2022/08/09 08:03:43;;;;;;;3.17;2.77;;;29.40;34.50;;;;;;5032899;28;20202;-49
2022/08/09 08:06:08;;;;;;;3.30;2.50;;;29.40;34.50;;;;;;5033274;28;20224;-46
2022/08/09 08:08:34;;;;;;;3.40;2.43;;;29.50;34.40;;;;;;5032561;28;20209;-45
2022/08/09 08:11:00;;;;;;;6.43;2.80;;;29.70;33.40;;;;;;5033364;28;20200;-47
2022/08/09 08:13:26;;;;;;;4.17;2.40;;;29.70;33.60;;;;;;5032747;28;20204;-47
2022/08/09 08:15:51;;;;;;;3.30;2.40;;;29.80;33.40;;;;;;5033324;28;20239;-45
2022/08/09 08:18:17;;;;;;;3.33;2.40;;;29.90;33.30;;;;;;5032710;28;20229;-46
2022/08/09 08:20:42;;;;;;;3.40;2.77;;;30.00;32.80;;;;;;5031084;28;20193;-49
2022/08/09 08:23:08;;;;;;;2.20;2.10;;;30.20;32.60;;;;;;5033225;28;20188;-45
2022/08/09 08:25:34;;;;;;;3.40;2.33;;;30.20;32.30;;;;;;5032149;28;20542;-46
2022/08/09 08:28:00;;;;;;;3.47;2.63;;;30.00;32.40;;;;;;5032706;28;20185;-46
2022/08/09 08:30:26;;;;;;;2.50;2.30;;;29.60;33.50;;;;;;5032391;28;20450;-45
2022/08/09 08:32:51;;;;;;;4.60;4.17;;;29.80;33.60;;;;;;5033032;28;20253;-45
2022/08/09 08:35:17;;;;;;;3.80;3.17;;;30.20;33.10;;;;;;5032118;28;20211;-46
2022/08/09 08:37:43;;;;;;;3.30;2.80;;;30.10;32.30;;;;;;5032469;28;20348;-45
2022/08/09 08:40:10;;;;;;;2.53;2.33;;;29.90;33.40;;;;;;5032228;28;20193;-44
2022/08/09 08:42:36;;;;;;;2.47;2.30;;;29.70;33.10;;;;;;5032892;28;20205;-45
2022/08/09 08:45:03;;;;;;;3.30;3.00;;;30.10;33.40;;;;;;5031980;28;20858;-45
2022/08/09 08:47:29;;;;;;;3.03;2.73;;;30.10;33.10;;;;;;5030720;28;20451;-47
2022/08/09 08:49:56;;;;;;;4.63;2.50;;;30.30;32.70;;;;;;5032015;28;20451;-49
2022/08/09 08:52:24;;;;;;;3.37;2.30;;;30.60;32.30;;;;;;5032582;28;20421;-46
2022/08/09 08:54:54;;;;;;;2.70;2.40;;;30.90;31.40;;;;;;5031651;28;20478;-45
2022/08/09 08:57:21;;;;;;;2.53;2.33;;;30.90;31.50;;;;;;5032097;28;20487;-46
2022/08/09 08:59:48;;;;;;;2.60;2.47;;;31.20;31.00;;;;;;5031844;28;20478;-47
2022/08/09 09:02:28;;;;;;;4.17;2.97;;;31.00;31.40;;;;;;5032419;28;20428;-48
2022/08/09 09:04:57;;;;;;;5.37;3.23;;;30.70;31.20;;;;;;5031642;28;20465;-45
2022/08/09 09:07:27;;;;;;;3.30;3.00;;;30.80;31.30;;;;;;5031919;28;20439;-49
2022/08/09 09:09:55;;;;;;;2.47;2.30;;;31.20;31.70;;;;;;5031646;28;20440;-49
2022/08/09 09:12:28;;;;;;;2.53;2.33;;;30.40;31.60;;;;;;5031826;28;20907;-50
2022/08/09 09:14:56;;;;;;;2.73;2.57;;;30.40;31.90;;;;;;5030018;28;20460;-48
2022/08/09 09:17:22;;;;;;;2.97;2.70;;;30.50;31.90;;;;;;5031639;28;20490;-46
2022/08/09 09:19:48;;;;;;;2.30;2.20;;;30.80;31.40;;;;;;5031659;28;20424;-49
2022/08/09 09:22:18;;;;;;;3.10;3.00;;;30.60;31.30;;;;;;5032094;28;20280;-50
2022/08/09 09:24:49;;;;;;;2.50;2.30;;;30.80;31.20;;;;;;5031367;28;20200;-50
2022/08/09 09:27:24;;;;;;;2.90;2.70;;;30.90;31.30;;;;;;5031563;28;20428;-50
2022/08/09 09:29:51;;;;;;;4.70;2.53;;;31.20;30.90;;;;;;5031377;28;20447;-49
2022/08/09 09:32:25;;;;;;;2.77;2.57;;;31.30;30.40;;;;;;5031954;28;20869;-45
2022/08/09 09:35:04;;;;;;;2.87;2.67;;;31.60;30.10;;;;;;5031125;28;20443;-48
2022/08/09 09:37:30;;;;;;;2.47;2.27;;;31.80;29.60;;;;;;5031592;28;20586;-47
2022/08/09 09:39:55;;;;;;;2.97;2.77;;;31.80;30.00;;;;;;5031278;28;20511;-49
2022/08/09 09:42:26;;;;;;;2.30;2.20;;;32.00;29.60;;;;;;5029912;28;20193;-45
2022/08/09 09:44:57;;;;;;;2.23;2.13;;;32.00;29.00;;;;;;5031034;28;20676;-48
2022/08/09 09:47:23;;;;;;;2.60;2.50;;;32.00;28.60;;;;;;5030637;28;20428;-47
2022/08/09 09:49:50;;;;;;;3.97;2.27;;;31.70;29.10;;;;;;5030955;28;20758;-48
2022/08/09 09:52:16;;;;;;;4.03;2.40;;;32.10;28.30;;;;;;5032080;28;20200;-49
2022/08/09 09:54:45;;;;;;;3.20;2.30;;;32.70;27.80;;;;;;5030748;28;20431;-49
2022/08/09 09:57:20;;;;;;;2.50;2.30;;;33.10;27.30;;;;;;5030904;28;20487;-46
2022/08/09 09:59:48;;;;;;;2.40;2.23;;;33.70;27.30;;;;;;5031058;28;20482;-50
2022/08/09 10:02:14;;;;;;;2.70;2.50;;;33.70;26.50;;;;;;5031190;28;20439;-45
2022/08/09 10:04:41;;;;;;;3.90;2.17;;;33.80;26.40;;;;;;5030546;28;20470;-46
2022/08/09 10:07:25;;;;;;;3.33;2.47;;;33.60;26.40;;;;;;5029190;28;20556;-47
2022/08/09 10:09:58;;;;;;;2.63;2.43;;;34.10;26.20;;;;;;5030716;28;20432;-49
2022/08/09 10:12:31;;;;;;;6.70;2.20;;;34.40;26.00;;;;;;5030894;28;20466;-50
2022/08/09 10:15:14;;;;;;;2.87;2.23;;;34.70;24.80;;;;;;5030538;28;20439;-45
2022/08/09 10:17:45;;;;;;;2.40;2.20;;;34.90;24.70;;;;;;5030648;28;21061;-49
2022/08/09 10:20:16;;;;;;;2.07;1.73;;;34.80;24.60;;;;;;5030592;28;20783;-48
2022/08/09 10:22:43;;;;;;;2.50;1.83;;;34.80;24.40;;;;;;5031093;28;20443;-45
2022/08/09 10:25:10;;;;;;;2.27;2.07;;;34.90;24.10;;;;;;5030498;28;20419;-46
2022/08/09 10:27:36;;;;;;;2.23;2.03;;;35.00;23.60;;;;;;5030297;28;20428;-46
2022/08/09 10:30:04;;;;;;;4.63;2.37;;;35.30;23.50;;;;;;5030339;28;20430;-46
2022/08/09 10:32:30;;;;;;;2.70;2.07;;;35.40;23.30;;;;;;5030681;28;20432;-49
2022/08/09 10:34:55;;;;;;;1.83;1.73;;;35.30;23.20;;;;;;5028956;28;20493;-48
2022/08/09 10:37:22;;;;;;;2.20;2.10;;;35.40;23.20;;;;;;5029979;28;20283;-45
2022/08/09 10:39:49;;;;;;;2.50;2.10;;;35.40;23.00;;;;;;5030063;28;20248;-47
2022/08/09 10:42:15;;;;;;;2.00;1.90;;;35.20;23.10;;;;;;5030863;28;20416;-45
2022/08/09 10:44:44;;;;;;;3.20;1.90;;;35.50;23.00;;;;;;5030082;28;20446;-45
2022/08/09 10:47:28;;;;;;;2.00;1.90;;;35.60;23.00;;;;;;5029932;28;20526;-46
2022/08/09 10:50:00;;;;;;;2.53;2.30;;;35.70;22.90;;;;;;5030146;28;20420;-45
2022/08/09 10:52:40;;;;;;;1.90;1.80;;;36.00;22.60;;;;;;5030683;28;20463;-46
2022/08/09 10:55:19;;;;;;;2.30;2.13;;;36.00;22.60;;;;;;5016910;28;20443;-46
2022/08/09 10:57:45;;;;;;;2.80;2.60;;;36.20;22.10;;;;;;5030243;28;20483;-49
2022/08/09 11:00:31;;;;;;;4.53;1.83;;;36.00;22.30;;;;;;5033026;28;20800;-48
2022/08/09 11:02:58;;;;;;;2.60;2.40;;;36.20;22.60;;;;;;5032381;28;20682;-45
2022/08/09 11:05:26;;;;;;;2.97;1.83;;;36.30;22.10;;;;;;5034106;28;20794;-46
2022/08/09 11:07:51;;;;;;;2.77;2.07;;;35.60;22.70;;;;;;5033889;28;20825;-48
2022/08/09 11:10:42;;;;;;;2.83;2.10;;;35.80;22.60;;;;;;5034008;28;20463;-46
2022/08/09 11:13:15;;;;;;;2.40;2.07;;;35.80;22.60;;;;;;5034448;28;20201;-45
2022/08/09 11:15:41;;;;;;;2.73;2.20;;;35.30;22.80;;;;;;5033649;28;20434;-49
2022/08/09 11:18:11;;;;;;;4.20;2.00;;;35.00;23.40;;;;;;5033965;28;20534;-45
2022/08/09 11:20:38;;;;;;;3.03;2.83;;;34.70;23.50;;;;;;5033772;28;20201;-50
2022/08/09 11:23:04;;;;;;;2.23;2.13;;;35.20;23.80;;;;;;5034396;28;20435;-45
2022/08/09 11:25:30;;;;;;;2.20;2.10;;;35.60;22.90;;;;;;5033537;28;20459;-45
2022/08/09 11:27:57;;;;;;;2.40;2.30;;;35.90;23.00;;;;;;5032188;28;20193;-48
2022/08/09 11:30:25;;;;;;;2.00;1.90;;;35.90;23.10;;;;;;5033385;28;20826;-49
2022/08/09 11:33:15;;;;;;;2.53;2.33;;;35.70;22.60;;;;;;5033722;28;20436;-45
2022/08/09 11:35:53;;;;;;;2.70;2.33;;;35.70;22.80;;;;;;5033724;28;20523;-47
2022/08/09 11:38:23;;;;;;;2.63;2.43;;;35.60;22.80;;;;;;5033547;28;20552;-50
2022/08/09 11:40:51;;;;;;;2.30;2.20;;;35.80;23.00;;;;;;5034046;28;20432;-47
2022/08/09 11:43:47;;;;;;;1.87;1.77;;;36.10;23.10;;;;;;5033828;28;20462;-46
2022/08/09 11:46:13;;;;;;;2.73;2.53;;;36.60;22.60;;;;;;5033980;28;20931;-46
2022/08/09 11:48:47;;;;;;;2.50;2.10;;;36.50;22.00;;;;;;5032827;28;20435;-46
2022/08/09 11:51:12;;;;;;;2.33;2.13;;;36.50;22.00;;;;;;5033904;28;20254;-46
2022/08/09 11:53:39;;;;;;;2.40;2.23;;;36.40;21.70;;;;;;5032448;28;20985;-47
2022/08/09 11:56:14;;;;;;;2.43;2.20;;;36.50;21.40;;;;;;5032633;28;20223;-49
2022/08/09 11:58:50;;;;;;;1.83;1.73;;;36.80;21.70;;;;;;5032464;28;20528;-47
2022/08/09 12:01:18;;;;;;;2.37;2.10;;;37.10;22.10;;;;;;5033691;28;20451;-46
2022/08/09 12:03:45;;;;;;;2.43;2.23;;;37.30;21.30;;;;;;5032750;28;20542;-46
2022/08/09 12:06:16;;;;;;;2.50;2.30;;;37.50;21.60;;;;;;5033470;28;20794;-46
2022/08/09 12:08:55;;;;;;;2.53;2.27;;;37.70;21.20;;;;;;5032435;28;20539;-46
2022/08/09 12:11:24;;;;;;;2.63;2.30;;;37.50;21.00;;;;;;5032772;28;20426;-45
2022/08/09 12:13:52;;;;;;;2.47;2.20;;;36.20;21.70;;;;;;5032682;28;20776;-46
2022/08/09 12:16:31;;;;;;;2.50;2.13;;;36.50;21.20;;;;;;5033275;28;20506;-48
2022/08/09 12:18:58;;;;;;;1.80;1.70;;;37.20;20.90;;;;;;5032379;28;21140;-46
2022/08/09 12:21:31;;;;;;;6.67;2.10;;;37.50;20.60;;;;;;5031375;28;20429;-48
2022/08/09 12:23:57;;;;;;;2.93;1.97;;;37.40;20.10;;;;;;5032489;28;20439;-46
2022/08/09 12:26:23;;;;;;;2.10;2.00;;;37.60;20.60;;;;;;5033016;28;20431;-47
2022/08/09 12:28:51;;;;;;;3.50;1.70;;;37.50;20.30;;;;;;5032119;28;20443;-47
2022/08/09 12:31:26;;;;;;;4.27;3.00;;;37.70;20.60;;;;;;5033044;28;20641;-49
2022/08/09 12:33:54;;;;;;;2.70;2.27;;;37.80;20.40;;;;;;5032391;28;20652;-48
2022/08/09 12:36:21;;;;;;;3.70;2.20;;;37.60;20.50;;;;;;5032867;28;20492;-46
2022/08/09 12:38:51;;;;;;;1.97;1.87;;;37.80;20.30;;;;;;5031672;28;20593;-46
2022/08/09 12:41:31;;;;;;;2.70;2.30;;;38.30;20.00;;;;;;5032962;28;20427;-46
2022/08/09 12:43:58;;;;;;;2.30;1.87;;;38.60;20.30;;;;;;5031969;28;20801;-46
2022/08/09 12:46:26;;;;;;;6.40;2.00;;;38.40;19.70;;;;;;5032508;28;20434;-47
2022/08/09 12:48:54;;;;;;;2.00;1.90;;;38.10;19.60;;;;;;5030192;28;20415;-46
2022/08/09 12:51:21;;;;;;;2.17;1.70;;;38.00;19.80;;;;;;5032468;28;20438;-46
2022/08/09 12:53:57;;;;;;;1.67;1.57;;;38.00;19.50;;;;;;5031857;28;20454;-46